M I D A S
Marine Information and Data Acquisition System
Tripno 895 of the Zeeleeuw from 2005-05-04 04:48:49 to 2005-05-04 15:22:24
Back to CruiseResearch ActivitiesStationsMapUnderway DataData graphs

EquipmentUnitsComments
TimeDGPSUTC
LatitudeDGPSDM.mWGS84
LongitudeDGPSDM.mWGS84
SpeedMeteo Stationm/sRelative wind speed
DirectionMeteo StationdegRelative wind direction
TemperatureMeteo Stationdeg CelciusAir temperature
PressureMeteo StationPaAtmospheric pressure
HumidityMeteo Station%Relative humidity
Missing or incorrect values are displayed as -999
Metereological data collected by the RV Zeeleeuw from 2005-05-04 04:43:54 to 2005-05-04 15:33:31
                                                                                    Next 1000 lines
Time Latitude Longitude Speed Direction Temperature Pressure Humidity
2005-05-04 04:44:04 51°13.595 2°56.096 2.9 201 11.8 101120 97
2005-05-04 04:44:09 51°13.596 2°56.093 3.7 192 11.8 101120 97
2005-05-04 04:44:14 51°13.597 2°56.088 3.8 185 11.8 101120 97
2005-05-04 04:44:19 51°13.599 2°56.084 4.6 171 11.8 101120 97
2005-05-04 04:44:25 51°13.6 2°56.078 4.5 173 11.8 101120 97
2005-05-04 04:44:30 51°13.602 2°56.073 4.9 178 11.8 101120 97
2005-05-04 04:44:35 51°13.604 2°56.068 2.7 197 11.8 101120 97
2005-05-04 04:44:40 51°13.605 2°56.062 3.7 178 11.9 101120 97
2005-05-04 04:44:45 51°13.608 2°56.055 5.1 192 11.9 101120 97
2005-05-04 04:44:49 51°13.61 2°56.05 5 180 11.9 101120 97
2005-05-04 04:44:55 51°13.612 2°56.043 4.4 178 11.9 101120 97
2005-05-04 04:44:59 51°13.614 2°56.037 5.2 175 11.9 101120 97
2005-05-04 04:45:05 51°13.616 2°56.03 4.3 171 11.9 101120 97
2005-05-04 04:45:10 51°13.618 2°56.023 4 170 11.9 101120 98
2005-05-04 04:45:15 51°13.621 2°56.016 5.1 162 11.9 101120 98
2005-05-04 04:45:19 51°13.623 2°56.009 5.5 172 12 101120 98
2005-05-04 04:45:25 51°13.625 2°56.001 4.4 177 12 101120 98
2005-05-04 04:45:29 51°13.627 2°55.994 5.4 169 12 101120 97
2005-05-04 04:45:35 51°13.63 2°55.985 6.9 172 12 101120 97
2005-05-04 04:45:39 51°13.632 2°55.978 5.6 170 11.9 101120 97
2005-05-04 04:45:45 51°13.635 2°55.97 5.3 177 11.9 101120 97
2005-05-04 04:45:49 51°13.638 2°55.962 5 183 12 101120 97
2005-05-04 04:45:55 51°13.641 2°55.954 5.3 175 12 101120 97
2005-05-04 04:46:00 51°13.645 2°55.946 6.6 174 12 101120 97
2005-05-04 04:46:04 51°13.648 2°55.939 6.6 175 12 101120 97
2005-05-04 04:46:09 51°13.652 2°55.931 5.1 171 12 101120 97
2005-05-04 04:46:15 51°13.656 2°55.923 7.7 175 12 101120 97
2005-05-04 04:46:19 51°13.659 2°55.916 7.1 187 11.9 101120 97
2005-05-04 04:46:25 51°13.663 2°55.908 8.6 168 11.9 101120 97
2005-05-04 04:46:29 51°13.667 2°55.9 7.6 166 11.9 101120 97
2005-05-04 04:46:35 51°13.671 2°55.892 7 173 11.9 101120 97
2005-05-04 04:46:39 51°13.675 2°55.885 7.4 171 11.9 101120 97
2005-05-04 04:46:45 51°13.679 2°55.876 5.4 176 11.9 101120 97
2005-05-04 04:46:49 51°13.682 2°55.87 5.3 181 11.9 101130 97
2005-05-04 04:46:55 51°13.685 2°55.862 4.4 178 11.9 101130 97
2005-05-04 04:46:59 51°13.689 2°55.855 6.9 172 11.9 101120 97
2005-05-04 04:47:05 51°13.692 2°55.846 6.2 178 11.9 101120 97
2005-05-04 04:47:09 51°13.695 2°55.839 5.5 170 11.9 101120 97
2005-05-04 04:47:15 51°13.698 2°55.831 5 157 11.9 101120 97
2005-05-04 04:47:19 51°13.7 2°55.824 5.3 174 11.9 101120 97
2005-05-04 04:47:25 51°13.703 2°55.815 3.9 183 11.9 101120 97
2005-05-04 04:47:29 51°13.705 2°55.808 5.7 182 11.9 101120 97
2005-05-04 04:47:35 51°13.708 2°55.8 4.3 178 11.9 101120 97
2005-05-04 04:47:39 51°13.71 2°55.794 3 176 11.9 101120 97
2005-05-04 04:47:45 51°13.712 2°55.784 3.1 168 11.9 101120 97
2005-05-04 04:47:49 51°13.714 2°55.776 3.1 210 11.9 101120 97
2005-05-04 04:47:55 51°13.716 2°55.767 2.4 180 11.9 101120 97
2005-05-04 04:47:59 51°13.717 2°55.76 2.7 177 11.9 101120 97
2005-05-04 04:48:05 51°13.719 2°55.751 4.8 182 11.9 101120 97
2005-05-04 04:48:09 51°13.721 2°55.744 3.1 201 12 101120 97
2005-05-04 04:48:14 51°13.721 2°55.738 4.5 186 12 101120 97
2005-05-04 04:48:19 51°13.722 2°55.734 3.9 178 12 101120 98
2005-05-04 04:48:24 51°13.723 2°55.731 2.3 193 12 101120 98
2005-05-04 04:48:29 51°13.723 2°55.731 1.7 232 12 101120 98
2005-05-04 04:48:34 51°13.725 2°55.731 0.9 221 12 101120 98
2005-05-04 04:48:39 51°13.725 2°55.733 2.4 243 12 101120 97
2005-05-04 04:48:44 51°13.727 2°55.735 2.7 233 12 101120 97
2005-05-04 04:48:49 51°13.729 2°55.737 2.9 240 12 101120 97
2005-05-04 04:48:54 51°13.73 2°55.737 2.3 239 12 101120 97
2005-05-04 04:48:59 51°13.731 2°55.737 3.2 260 12 101120 97
2005-05-04 04:49:05 51°13.731 2°55.736 2.7 260 12 101120 97
2005-05-04 04:49:09 51°13.732 2°55.735 3 263 12 101120 97
2005-05-04 04:49:14 51°13.731 2°55.734 3.2 254 12 101120 97
2005-05-04 04:49:19 51°13.731 2°55.732 3.3 244 12 101120 97
2005-05-04 04:49:23 51°13.729 2°55.729 2.3 235 12 101120 97
2005-05-04 04:49:29 51°13.727 2°55.726 2.8 235 12 101120 97
2005-05-04 04:49:35 51°13.725 2°55.724 5.9 253 12 101120 97
2005-05-04 04:49:39 51°13.724 2°55.722 4.2 234 12 101120 97
2005-05-04 04:49:44 51°13.723 2°55.72 2.9 257 12 101120 97
2005-05-04 04:49:49 51°13.723 2°55.72 2.8 253 12 101120 97
2005-05-04 04:49:55 51°13.725 2°55.719 2.3 267 12 101120 97
2005-05-04 04:49:59 51°13.726 2°55.718 2.7 314 12 101120 97
2005-05-04 04:50:05 51°13.729 2°55.717 5.4 276 12 101120 97
2005-05-04 04:50:09 51°13.732 2°55.715 4.5 297 12 101120 97
2005-05-04 04:50:15 51°13.735 2°55.712 4.9 233 12 101120 97
2005-05-04 04:50:19 51°13.738 2°55.71 3.3 315 11.9 101120 97
2005-05-04 04:50:25 51°13.742 2°55.705 3.9 354 11.9 101120 97
2005-05-04 04:50:29 51°13.745 2°55.702 3.7 354 11.9 101120 97
2005-05-04 04:50:33 51°13.75 2°55.697 3.1 6 11.9 101120 97
2005-05-04 04:50:39 51°13.756 2°55.69 5.3 354 11.9 101120 97
2005-05-04 04:50:44 51°13.764 2°55.683 4.6 334 11.9 101120 97
2005-05-04 04:50:49 51°13.772 2°55.677 5.5 330 11.9 101110 97
2005-05-04 04:50:54 51°13.779 2°55.671 5.9 339 11.9 101110 97
2005-05-04 04:50:59 51°13.789 2°55.664 5.4 353 11.9 101120 97
2005-05-04 04:51:04 51°13.798 2°55.657 6.1 339 11.9 101120 97
2005-05-04 04:51:09 51°13.807 2°55.652 5 352 11.9 101110 97
2005-05-04 04:51:14 51°13.818 2°55.643 3.8 357 11.9 101110 97
2005-05-04 04:51:19 51°13.827 2°55.637 5.9 15 11.9 101110 97
2005-05-04 04:51:24 51°13.839 2°55.629 4.1 354 11.9 101110 97
2005-05-04 04:51:29 51°13.85 2°55.622 5.4 348 11.9 101110 97
2005-05-04 04:51:34 51°13.861 2°55.613 8 335 11.9 101110 97
2005-05-04 04:51:39 51°13.871 2°55.606 8.1 330 11.8 101120 97
2005-05-04 04:51:44 51°13.884 2°55.596 7.5 42 11.8 101120 97
2005-05-04 04:51:49 51°13.895 2°55.588 6.6 351 11.9 101120 97
2005-05-04 04:51:54 51°13.906 2°55.579 9 351 11.9 101120 97
2005-05-04 04:51:59 51°13.917 2°55.571 9.3 333 11.8 101120 97
2005-05-04 04:52:04 51°13.93 2°55.562 7.5 322 11.8 101120 97
2005-05-04 04:52:09 51°13.941 2°55.554 5.8 345 11.8 101110 97
2005-05-04 04:52:14 51°13.954 2°55.544 8.7 349 11.8 101110 97
2005-05-04 04:52:19 51°13.965 2°55.536 7.6 351 11.8 101110 97
2005-05-04 04:52:24 51°13.978 2°55.526 6.2 335 11.8 101110 97
2005-05-04 04:52:29 51°13.99 2°55.518 6.9 349 11.8 101110 97
2005-05-04 04:52:34 51°14.002 2°55.509 6.8 344 11.8 101110 97
2005-05-04 04:52:39 51°14.015 2°55.501 7.5 337 11.8 101110 97
2005-05-04 04:52:43 51°14.023 2°55.495 6.6 343 11.8 101110 97
2005-05-04 04:52:49 51°14.039 2°55.484 7 351 11.7 101110 97
2005-05-04 04:52:54 51°14.05 2°55.476 7.3 343 11.7 101110 97
2005-05-04 04:52:59 51°14.063 2°55.466 7 344 11.7 101100 97
2005-05-04 04:53:04 51°14.076 2°55.457 7.9 355 11.7 101100 97
2005-05-04 04:53:09 51°14.086 2°55.449 6.1 340 11.7 101110 97
2005-05-04 04:53:14 51°14.098 2°55.44 7 349 11.7 101110 97
2005-05-04 04:53:19 51°14.11 2°55.431 6.6 349 11.7 101110 97
2005-05-04 04:53:24 51°14.124 2°55.42 6.8 323 11.7 101110 97
2005-05-04 04:53:29 51°14.136 2°55.41 7.5 333 11.7 101110 97
2005-05-04 04:53:34 51°14.148 2°55.401 5.7 340 11.7 101110 97
2005-05-04 04:53:39 51°14.158 2°55.392 6.7 336 11.7 101110 97
2005-05-04 04:53:44 51°14.171 2°55.38 7.8 334 11.7 101110 97
2005-05-04 04:53:49 51°14.183 2°55.37 7.6 332 11.7 101110 97
2005-05-04 04:53:54 51°14.194 2°55.359 9.9 325 11.7 101110 97
2005-05-04 04:53:59 51°14.205 2°55.348 10.9 329 11.7 101110 97
2005-05-04 04:54:04 51°14.216 2°55.336 9.4 335 11.7 101110 97
2005-05-04 04:54:09 51°14.227 2°55.323 9.8 335 11.6 101110 97
2005-05-04 04:54:14 51°14.237 2°55.309 10.2 333 11.6 101110 97
2005-05-04 04:54:19 51°14.245 2°55.296 11.3 336 11.6 101110 97
2005-05-04 04:54:24 51°14.255 2°55.279 10.6 333 11.6 101110 97
2005-05-04 04:54:29 51°14.263 2°55.264 11.2 339 11.6 101100 97
2005-05-04 04:54:34 51°14.273 2°55.245 11.8 342 11.6 101100 97
2005-05-04 04:54:39 51°14.28 2°55.23 12.3 356 11.6 101110 97
2005-05-04 04:54:44 51°14.289 2°55.209 10.3 339 11.6 101110 97
2005-05-04 04:54:49 51°14.298 2°55.19 12.3 342 11.6 101110 97
2005-05-04 04:54:53 51°14.305 2°55.175 10.9 358 11.6 101110 97
2005-05-04 04:54:58 51°14.314 2°55.155 13.2 341 11.6 101110 97
2005-05-04 04:55:04 51°14.326 2°55.133 10.7 340 11.6 101110 97
2005-05-04 04:55:09 51°14.336 2°55.113 11.6 339 11.6 101110 97
2005-05-04 04:55:13 51°14.344 2°55.098 12.5 337 11.6 101110 97
2005-05-04 04:55:19 51°14.355 2°55.076 12.2 338 11.6 101100 98
2005-05-04 04:55:24 51°14.366 2°55.053 12.8 339 11.6 101100 98
2005-05-04 04:55:29 51°14.376 2°55.033 12.6 336 11.6 101090 98
2005-05-04 04:55:33 51°14.385 2°55.016 11.5 340 11.6 101090 98
2005-05-04 04:55:39 51°14.396 2°54.993 12.8 342 11.6 101090 98
2005-05-04 04:55:43 51°14.404 2°54.976 12.4 343 11.6 101090 98
2005-05-04 04:55:49 51°14.418 2°54.947 12.7 346 11.6 101090 98
2005-05-04 04:55:54 51°14.427 2°54.923 13.4 340 11.6 101090 98
2005-05-04 04:55:59 51°14.436 2°54.902 13 340 11.6 101090 98
2005-05-04 04:56:04 51°14.446 2°54.878 13.6 345 11.6 101090 98
2005-05-04 04:56:09 51°14.457 2°54.852 13.4 342 11.6 101090 98
2005-05-04 04:56:14 51°14.467 2°54.827 13.3 343 11.6 101090 98
2005-05-04 04:56:18 51°14.475 2°54.808 13.5 345 11.6 101080 98
2005-05-04 04:56:24 51°14.487 2°54.778 13.7 343 11.6 101080 98
2005-05-04 04:56:29 51°14.496 2°54.754 13.4 342 11.6 101090 98
2005-05-04 04:56:34 51°14.506 2°54.729 12.3 344 11.6 101090 98
2005-05-04 04:56:39 51°14.514 2°54.707 13.4 345 11.5 101080 98
2005-05-04 04:56:43 51°14.522 2°54.686 12.7 346 11.5 101080 98
2005-05-04 04:56:49 51°14.533 2°54.655 14.2 344 11.5 101090 98
2005-05-04 04:56:54 51°14.544 2°54.627 14 341 11.5 101090 98
2005-05-04 04:56:59 51°14.552 2°54.604 13.4 343 11.5 101090 98
2005-05-04 04:57:04 51°14.562 2°54.579 14.3 341 11.5 101090 98
2005-05-04 04:57:09 51°14.572 2°54.554 14 343 11.5 101080 98
2005-05-04 04:57:13 51°14.58 2°54.531 13.6 342 11.5 101080 98
2005-05-04 04:57:19 51°14.592 2°54.5 13.5 340 11.5 101080 98
2005-05-04 04:57:24 51°14.602 2°54.474 13.5 345 11.5 101080 98
2005-05-04 04:57:29 51°14.61 2°54.451 13.6 347 11.5 101080 98
2005-05-04 04:57:33 51°14.619 2°54.428 13.3 347 11.5 101080 98
2005-05-04 04:57:39 51°14.629 2°54.4 13.6 343 11.5 101080 98
2005-05-04 04:57:44 51°14.64 2°54.371 14.4 342 11.5 101080 98
2005-05-04 04:57:49 51°14.649 2°54.348 14.6 342 11.5 101090 98
2005-05-04 04:57:54 51°14.659 2°54.322 13.7 342 11.5 101090 98
2005-05-04 04:57:59 51°14.669 2°54.296 14.3 341 11.5 101080 98
2005-05-04 04:58:04 51°14.679 2°54.268 13.7 340 11.5 101080 98
2005-05-04 04:58:09 51°14.689 2°54.243 13.1 341 11.5 101070 98
2005-05-04 04:58:14 51°14.698 2°54.219 13.1 342 11.5 101070 98
2005-05-04 04:58:19 51°14.708 2°54.194 13.5 341 11.5 101080 98
2005-05-04 04:58:23 51°14.716 2°54.171 13.8 343 11.5 101080 98
2005-05-04 04:58:29 51°14.728 2°54.14 12.9 343 11.4 101080 98
2005-05-04 04:58:34 51°14.736 2°54.117 12.7 345 11.4 101080 98
2005-05-04 04:58:39 51°14.746 2°54.091 13.8 344 11.4 101080 98
2005-05-04 04:58:44 51°14.757 2°54.063 12.3 342 11.4 101080 98
2005-05-04 04:58:49 51°14.766 2°54.038 14.1 341 11.4 101080 98
2005-05-04 04:58:54 51°14.776 2°54.015 13.8 342 11.4 101080 98
2005-05-04 04:58:59 51°14.785 2°53.989 13.2 340 11.4 101080 98
2005-05-04 04:59:04 51°14.796 2°53.961 13.4 339 11.4 101080 98
2005-05-04 04:59:09 51°14.805 2°53.936 12.5 343 11.4 101080 98
2005-05-04 04:59:14 51°14.815 2°53.91 12.7 341 11.4 101080 98
2005-05-04 04:59:19 51°14.824 2°53.887 13.1 343 11.4 101080 98
2005-05-04 04:59:24 51°14.834 2°53.859 13.2 341 11.4 101080 98
2005-05-04 04:59:29 51°14.844 2°53.834 13.2 339 11.4 101080 98
2005-05-04 04:59:33 51°14.851 2°53.814 13 339 11.4 101080 98
2005-05-04 04:59:39 51°14.862 2°53.786 13.2 339 11.4 101080 98
2005-05-04 04:59:45 51°14.874 2°53.755 12.1 342 11.4 101080 98
2005-05-04 04:59:49 51°14.883 2°53.732 13.3 340 11.4 101080 98
2005-05-04 04:59:54 51°14.891 2°53.709 12.9 340 11.4 101080 98
2005-05-04 04:59:59 51°14.901 2°53.684 13.3 341 11.4 101080 98
2005-05-04 05:00:04 51°14.912 2°53.656 13.6 342 11.4 101080 98
2005-05-04 05:00:09 51°14.92 2°53.63 12.9 343 11.4 101080 98
2005-05-04 05:00:14 51°14.928 2°53.603 13.3 344 11.4 101080 98
2005-05-04 05:00:19 51°14.935 2°53.578 12.5 346 11.4 101090 98
2005-05-04 05:00:25 51°14.944 2°53.545 12.6 349 11.4 101090 98
2005-05-04 05:00:29 51°14.95 2°53.52 12.9 347 11.4 101080 98
2005-05-04 05:00:34 51°14.956 2°53.495 13.8 347 11.4 101080 98
2005-05-04 05:00:39 51°14.963 2°53.466 13.5 346 11.4 101080 98
2005-05-04 05:00:44 51°14.971 2°53.436 14.1 347 11.4 101080 98
2005-05-04 05:00:49 51°14.978 2°53.408 13.5 344 11.4 101090 98
2005-05-04 05:00:54 51°14.985 2°53.38 13.5 346 11.4 101090 98
2005-05-04 05:00:59 51°14.991 2°53.355 13 346 11.4 101080 98
2005-05-04 05:01:04 51°14.999 2°53.324 12.9 343 11.4 101080 98
2005-05-04 05:01:09 51°15.005 2°53.298 12.5 343 11.4 101080 98
2005-05-04 05:01:14 51°15.012 2°53.27 14.1 346 11.4 101080 98
2005-05-04 05:01:19 51°15.019 2°53.242 14.2 345 11.3 101090 99
2005-05-04 05:01:24 51°15.026 2°53.211 13.7 346 11.3 101090 99
2005-05-04 05:01:29 51°15.033 2°53.183 13.2 345 11.3 101080 99
2005-05-04 05:01:34 51°15.039 2°53.158 13.4 345 11.3 101080 99
2005-05-04 05:01:39 51°15.046 2°53.13 13.9 347 11.3 101080 99
2005-05-04 05:01:44 51°15.054 2°53.099 14.2 347 11.3 101080 99
2005-05-04 05:01:49 51°15.061 2°53.071 13.7 345 11.3 101080 99
2005-05-04 05:01:54 51°15.067 2°53.042 14.4 348 11.3 101080 99
2005-05-04 05:01:59 51°15.074 2°53.014 13.5 348 11.3 101080 99
2005-05-04 05:02:05 51°15.081 2°52.983 13.4 345 11.3 101080 99
2005-05-04 05:02:09 51°15.088 2°52.958 13.3 346 11.3 101080 99
2005-05-04 05:02:14 51°15.094 2°52.933 13.4 348 11.3 101080 99
2005-05-04 05:02:19 51°15.101 2°52.905 13 349 11.3 101090 99
2005-05-04 05:02:24 51°15.109 2°52.874 13.1 345 11.3 101090 99
2005-05-04 05:02:29 51°15.116 2°52.846 12.5 345 11.3 101090 99
2005-05-04 05:02:34 51°15.123 2°52.817 13.3 347 11.3 101090 99
2005-05-04 05:02:39 51°15.129 2°52.792 12.6 349 11.3 101080 99
2005-05-04 05:02:45 51°15.137 2°52.758 11.9 347 11.3 101080 99
2005-05-04 05:02:49 51°15.144 2°52.732 12.4 349 11.3 101090 99
2005-05-04 05:02:55 51°15.151 2°52.701 12.7 350 11.3 101090 99
2005-05-04 05:02:59 51°15.157 2°52.678 13.1 349 11.3 101090 99
2005-05-04 05:03:03 51°15.163 2°52.652 12.8 348 11.3 101090 99
2005-05-04 05:03:09 51°15.171 2°52.621 13 346 11.3 101080 99
2005-05-04 05:03:13 51°15.178 2°52.596 13.2 345 11.3 101080 99
2005-05-04 05:03:19 51°15.187 2°52.566 12.6 343 11.3 101090 99
2005-05-04 05:03:24 51°15.197 2°52.536 12.4 343 11.3 101090 99
2005-05-04 05:03:29 51°15.206 2°52.51 12.1 343 11.3 101090 99
2005-05-04 05:03:35 51°15.216 2°52.481 11.9 342 11.3 101090 99
2005-05-04 05:03:39 51°15.224 2°52.461 12.2 339 11.3 101080 99
2005-05-04 05:03:44 51°15.235 2°52.433 12.6 343 11.3 101080 99
2005-05-04 05:03:49 51°15.244 2°52.41 12 342 11.3 101090 99
2005-05-04 05:03:54 51°15.255 2°52.382 12.8 337 11.3 101090 99
2005-05-04 05:03:59 51°15.264 2°52.359 12.1 343 11.3 101080 99
2005-05-04 05:04:04 51°15.275 2°52.33 12.2 341 11.3 101080 99
2005-05-04 05:04:09 51°15.284 2°52.307 13.1 344 11.3 101090 99
2005-05-04 05:04:14 51°15.294 2°52.281 13.7 342 11.3 101090 99
2005-05-04 05:04:19 51°15.304 2°52.256 13.1 348 11.3 101080 99
2005-05-04 05:04:24 51°15.314 2°52.23 14 342 11.3 101080 99
2005-05-04 05:04:29 51°15.322 2°52.207 14 342 11.3 101080 99
2005-05-04 05:04:34 51°15.333 2°52.179 13.3 343 11.3 101080 99
2005-05-04 05:04:39 51°15.341 2°52.156 13.3 344 11.3 101080 99
2005-05-04 05:04:44 51°15.352 2°52.128 14.1 341 11.3 101080 99
2005-05-04 05:04:49 51°15.361 2°52.105 13.1 341 11.3 101080 99
2005-05-04 05:04:54 51°15.371 2°52.08 12.8 342 11.3 101080 99
2005-05-04 05:04:59 51°15.381 2°52.055 12.8 341 11.3 101070 99
2005-05-04 05:05:05 51°15.393 2°52.024 12.3 344 11.3 101070 99
2005-05-04 05:05:09 51°15.402 2°52.002 13.3 344 11.2 101080 99
2005-05-04 05:05:14 51°15.412 2°51.976 13.4 343 11.2 101080 99
2005-05-04 05:05:19 51°15.421 2°51.953 13.6 342 11.2 101080 99
2005-05-04 05:05:23 51°15.429 2°51.93 12 344 11.2 101080 99
2005-05-04 05:05:29 51°15.441 2°51.899 12.7 343 11.2 101080 99
2005-05-04 05:05:33 51°15.449 2°51.879 12.6 344 11.2 101080 99
2005-05-04 05:05:39 51°15.46 2°51.851 12.3 345 11.2 101080 99
2005-05-04 05:05:44 51°15.47 2°51.825 13.4 344 11.2 101080 99
2005-05-04 05:05:49 51°15.479 2°51.8 12.7 345 11.2 101080 99
2005-05-04 05:05:54 51°15.49 2°51.772 13.3 343 11.2 101080 99
2005-05-04 05:05:59 51°15.499 2°51.749 12.2 341 11.2 101080 99
2005-05-04 05:06:04 51°15.51 2°51.721 12.3 343 11.2 101080 99
2005-05-04 05:06:09 51°15.519 2°51.698 13.7 343 11.2 101080 99
2005-05-04 05:06:14 51°15.53 2°51.67 12.5 342 11.2 101080 99
2005-05-04 05:06:19 51°15.539 2°51.647 12.7 344 11.2 101070 99
2005-05-04 05:06:24 51°15.55 2°51.619 12.9 342 11.2 101070 99
2005-05-04 05:06:29 51°15.558 2°51.596 12.9 344 11.2 101080 99
2005-05-04 05:06:33 51°15.567 2°51.573 12.6 343 11.2 101080 99
2005-05-04 05:06:39 51°15.578 2°51.546 12.5 342 11.2 101080 99
2005-05-04 05:06:44 51°15.589 2°51.517 12.6 346 11.2 101080 99
2005-05-04 05:06:49 51°15.599 2°51.492 12.6 342 11.2 101080 99
2005-05-04 05:06:54 51°15.607 2°51.469 13.1 344 11.2 101080 99
2005-05-04 05:06:59 51°15.617 2°51.444 13 342 11.2 101080 99
2005-05-04 05:07:04 51°15.628 2°51.416 12 345 11.2 101080 99
2005-05-04 05:07:09 51°15.638 2°51.391 11.6 342 11.2 101080 99
2005-05-04 05:07:13 51°15.646 2°51.371 12.6 344 11.2 101080 99
2005-05-04 05:07:19 51°15.657 2°51.343 12.4 342 11.2 101080 99
2005-05-04 05:07:24 51°15.667 2°51.318 13 343 11.2 101080 99
2005-05-04 05:07:29 51°15.678 2°51.29 12.5 345 11.2 101080 99
2005-05-04 05:07:34 51°15.688 2°51.265 12.6 342 11.2 101080 99
2005-05-04 05:07:39 51°15.697 2°51.243 12.4 341 11.2 101080 99
2005-05-04 05:07:44 51°15.707 2°51.217 13.2 340 11.2 101080 99
2005-05-04 05:07:49 51°15.718 2°51.189 12.3 345 11.2 101080 99
2005-05-04 05:07:54 51°15.727 2°51.166 11.9 346 11.2 101080 99
2005-05-04 05:07:59 51°15.737 2°51.141 12.1 343 11.2 101080 99
2005-05-04 05:08:04 51°15.748 2°51.114 12.2 345 11.2 101080 99
2005-05-04 05:08:09 51°15.758 2°51.088 13.2 343 11.2 101070 99
2005-05-04 05:08:14 51°15.768 2°51.063 12.7 341 11.2 101070 99
2005-05-04 05:08:19 51°15.777 2°51.041 13.4 341 11.2 101080 99
2005-05-04 05:08:25 51°15.788 2°51.011 12.1 344 11.2 101080 99
2005-05-04 05:08:29 51°15.796 2°50.99 11.9 345 11.2 101080 99
2005-05-04 05:08:33 51°15.805 2°50.968 11.8 346 11.2 101080 99
2005-05-04 05:08:39 51°15.816 2°50.94 12 345 11.2 101070 99
2005-05-04 05:08:44 51°15.826 2°50.912 12.3 344 11.2 101070 99
2005-05-04 05:08:49 51°15.835 2°50.889 12.8 347 11.2 101080 99
2005-05-04 05:08:54 51°15.844 2°50.864 13.1 344 11.2 101080 99
2005-05-04 05:08:59 51°15.854 2°50.839 12.7 343 11.2 101080 99
2005-05-04 05:09:04 51°15.865 2°50.811 11.5 345 11.2 101080 99
2005-05-04 05:09:09 51°15.873 2°50.789 12.2 350 11.2 101080 99
2005-05-04 05:09:14 51°15.884 2°50.763 11.5 346 11.2 101080 99
2005-05-04 05:09:19 51°15.894 2°50.737 12.7 346 11.2 101090 99
2005-05-04 05:09:24 51°15.904 2°50.71 12.4 345 11.2 101090 99
2005-05-04 05:09:29 51°15.914 2°50.685 11.9 345 11.2 101080 100
2005-05-04 05:09:34 51°15.924 2°50.66 12.3 345 11.2 101080 100
2005-05-04 05:09:39 51°15.932 2°50.637 12.1 346 11.2 101090 100
2005-05-04 05:09:43 51°15.94 2°50.617 12.7 340 11.2 101090 100
2005-05-04 05:09:49 51°15.952 2°50.585 12.8 346 11.2 101090 100
2005-05-04 05:09:55 51°15.963 2°50.557 12.4 346 11.2 101090 100
2005-05-04 05:09:59 51°15.97 2°50.537 12.8 347 11.2 101080 100
2005-05-04 05:10:05 51°15.982 2°50.508 12.5 344 11.2 101080 100
2005-05-04 05:10:09 51°15.99 2°50.485 12.6 346 11.1 101080 100
2005-05-04 05:10:15 51°16.001 2°50.458 11.3 349 11.1 101080 100
2005-05-04 05:10:19 51°16.009 2°50.436 11.9 345 11.1 101090 100
2005-05-04 05:10:24 51°16.018 2°50.414 12.2 346 11.1 101090 100
2005-05-04 05:10:29 51°16.028 2°50.386 12.3 347 11.1 101080 100
2005-05-04 05:10:34 51°16.036 2°50.364 11.8 344 11.1 101080 100
2005-05-04 05:10:39 51°16.047 2°50.337 12.4 347 11.1 101080 100
2005-05-04 05:10:44 51°16.056 2°50.312 12.1 345 11.1 101080 100
2005-05-04 05:10:49 51°16.066 2°50.287 11.6 347 11.1 101090 100
2005-05-04 05:10:54 51°16.075 2°50.263 11.3 349 11.1 101090 100
2005-05-04 05:10:59 51°16.083 2°50.241 12.1 350 11.1 101080 100
2005-05-04 05:11:04 51°16.094 2°50.213 11.8 346 11.1 101080 100
2005-05-04 05:11:09 51°16.104 2°50.188 12.3 349 11.1 101090 100
2005-05-04 05:11:14 51°16.113 2°50.163 12.8 349 11.1 101090 100
2005-05-04 05:11:19 51°16.122 2°50.141 12 345 11.1 101090 100
2005-05-04 05:11:25 51°16.134 2°50.111 13.6 346 11.1 101090 100
2005-05-04 05:11:29 51°16.142 2°50.09 13.1 347 11.1 101090 100
2005-05-04 05:11:34 51°16.152 2°50.065 11.7 352 11.1 101090 100
2005-05-04 05:11:39 51°16.161 2°50.043 12.7 349 11.1 101090 100
2005-05-04 05:11:44 51°16.172 2°50.015 12.1 348 11.1 101090 100
2005-05-04 05:11:49 51°16.181 2°49.991 12.3 349 11.1 101090 100
2005-05-04 05:11:53 51°16.189 2°49.971 12.1 347 11.1 101090 100
2005-05-04 05:11:59 51°16.199 2°49.943 12.3 347 11.1 101080 100
2005-05-04 05:12:04 51°16.209 2°49.918 12.1 346 11.1 101080 100
2005-05-04 05:12:09 51°16.219 2°49.893 12.8 350 11.1 101090 100
2005-05-04 05:12:14 51°16.229 2°49.866 13.7 347 11.1 101090 100
2005-05-04 05:12:19 51°16.238 2°49.844 13.8 349 11.1 101090 100
2005-05-04 05:12:23 51°16.247 2°49.821 13.1 348 11.1 101090 100
2005-05-04 05:12:29 51°16.257 2°49.796 13.1 345 11.1 101090 100
2005-05-04 05:12:34 51°16.266 2°49.772 12.7 342 11.1 101090 100
2005-05-04 05:12:39 51°16.273 2°49.754 11.3 338 11.1 101090 100
2005-05-04 05:12:44 51°16.282 2°49.737 10.7 333 11.1 101090 100
2005-05-04 05:12:49 51°16.291 2°49.721 10.3 329 11.1 101080 100
2005-05-04 05:12:54 51°16.299 2°49.71 8.7 327 11.1 101080 100
2005-05-04 05:12:59 51°16.308 2°49.701 8.9 324 11.1 101090 100
2005-05-04 05:13:04 51°16.317 2°49.693 9.5 42 11.1 101090 100
2005-05-04 05:13:09 51°16.326 2°49.686 8.2 227 11.1 101090 100
2005-05-04 05:13:14 51°16.334 2°49.68 8 313 11.1 101090 100
2005-05-04 05:13:19 51°16.342 2°49.675 7.5 310 11.1 101090 100
2005-05-04 05:13:24 51°16.351 2°49.671 7.9 313 11.1 101090 100
2005-05-04 05:13:29 51°16.359 2°49.668 8.7 314 11.1 101100 100
2005-05-04 05:13:34 51°16.367 2°49.664 8.8 227 11.1 101100 100
2005-05-04 05:13:39 51°16.376 2°49.659 8.9 320 11.1 101100 100
2005-05-04 05:13:44 51°16.385 2°49.654 8 41 11.1 101100 100
2005-05-04 05:13:49 51°16.395 2°49.649 8.6 42 11.1 101100 100
2005-05-04 05:13:54 51°16.404 2°49.646 8.7 307 11.1 101100 100
2005-05-04 05:13:59 51°16.411 2°49.644 7.6 301 11.1 101100 100
2005-05-04 05:14:04 51°16.42 2°49.643 7.8 294 11.1 101100 100
2005-05-04 05:14:09 51°16.428 2°49.645 7.1 290 11.1 101100 100
2005-05-04 05:14:14 51°16.436 2°49.647 6.5 290 11.1 101100 100
2005-05-04 05:14:19 51°16.443 2°49.649 7.4 292 11.1 101100 100
2005-05-04 05:14:24 51°16.451 2°49.652 7.4 292 11.1 101100 100
2005-05-04 05:14:29 51°16.459 2°49.653 7.4 294 11.1 101100 100
2005-05-04 05:14:34 51°16.466 2°49.655 6.5 295 11.1 101100 100
2005-05-04 05:14:39 51°16.473 2°49.656 7.1 298 11.1 101110 100
2005-05-04 05:14:45 51°16.482 2°49.657 6.7 300 11.1 101110 100
2005-05-04 05:14:49 51°16.488 2°49.656 6.1 303 11.1 101110 100
2005-05-04 05:14:55 51°16.495 2°49.655 6.5 303 11.1 101110 100
2005-05-04 05:14:59 51°16.5 2°49.653 5.9 301 11.1 101110 100
2005-05-04 05:15:04 51°16.506 2°49.652 6.7 307 11.1 101110 100
2005-05-04 05:15:09 51°16.512 2°49.65 6.7 307 11 101110 100
2005-05-04 05:15:14 51°16.517 2°49.647 6 304 11 101110 100
2005-05-04 05:15:19 51°16.523 2°49.646 6.3 302 11.1 101110 100
2005-05-04 05:15:24 51°16.527 2°49.645 6.5 294 11.1 101110 100
2005-05-04 05:15:29 51°16.532 2°49.644 5.9 289 11.1 101110 100
2005-05-04 05:15:34 51°16.536 2°49.645 5.7 286 11.1 101110 100
2005-05-04 05:15:39 51°16.54 2°49.645 5.4 284 11 101110 100
2005-05-04 05:15:44 51°16.543 2°49.646 5.7 281 11 101110 100
2005-05-04 05:15:49 51°16.547 2°49.647 5.9 276 11.1 101120 100
2005-05-04 05:15:54 51°16.55 2°49.65 6 268 11.1 101120 100
2005-05-04 05:15:59 51°16.553 2°49.652 5 264 11 101110 100
2005-05-04 05:16:04 51°16.556 2°49.655 5.1 266 11 101110 100
2005-05-04 05:16:09 51°16.558 2°49.658 4.3 258 11 101110 100
2005-05-04 05:16:14 51°16.56 2°49.66 3.4 255 11 101110 100
2005-05-04 05:16:19 51°16.563 2°49.664 3.5 258 11 101120 100
2005-05-04 05:16:24 51°16.565 2°49.666 3.8 259 11 101120 100
2005-05-04 05:16:29 51°16.567 2°49.669 4 258 11 101120 100
2005-05-04 05:16:34 51°16.569 2°49.672 4.6 260 11 101120 100
2005-05-04 05:16:39 51°16.571 2°49.674 4.6 262 11 101120 100
2005-05-04 05:16:43 51°16.573 2°49.676 5.4 277 11 101120 100
2005-05-04 05:16:49 51°16.575 2°49.678 5.3 277 11 101120 100
2005-05-04 05:16:54 51°16.578 2°49.68 5 283 11 101120 100
2005-05-04 05:16:59 51°16.58 2°49.681 5 283 11 101120 100
2005-05-04 05:17:04 51°16.582 2°49.683 5.5 280 11 101120 100
2005-05-04 05:17:09 51°16.584 2°49.684 5.6 277 11 101120 100
2005-05-04 05:17:14 51°16.586 2°49.686 5.7 280 11 101120 100
2005-05-04 05:17:19 51°16.587 2°49.687 5.4 278 11 101120 100
2005-05-04 05:17:24 51°16.589 2°49.688 5.5 274 11 101120 100
2005-05-04 05:17:29 51°16.592 2°49.69 6 274 11 101120 100
2005-05-04 05:17:35 51°16.594 2°49.693 5.2 267 11 101120 100
2005-05-04 05:17:39 51°16.595 2°49.695 4.4 265 11 101120 100
2005-05-04 05:17:44 51°16.597 2°49.699 3.9 262 11 101120 100
2005-05-04 05:17:49 51°16.599 2°49.702 4 263 11 101120 100
2005-05-04 05:17:54 51°16.6 2°49.705 3.6 262 11 101120 100
2005-05-04 05:17:59 51°16.602 2°49.708 3.6 263 11 101120 100
2005-05-04 05:18:04 51°16.604 2°49.712 4.3 270 11 101120 100
2005-05-04 05:18:09 51°16.606 2°49.714 4.3 273 11 101130 100
2005-05-04 05:18:14 51°16.608 2°49.717 4.4 280 11 101130 100
2005-05-04 05:18:19 51°16.61 2°49.719 4.7 281 11 101130 100
2005-05-04 05:18:25 51°16.613 2°49.722 5.4 275 11 101130 100
2005-05-04 05:18:29 51°16.615 2°49.725 5.1 268 11 101120 100
2005-05-04 05:18:34 51°16.617 2°49.727 4.8 266 11 101120 100
2005-05-04 05:18:39 51°16.62 2°49.731 5.3 270 11 101120 100
2005-05-04 05:18:45 51°16.622 2°49.734 2.8 257 11 101120 100
2005-05-04 05:18:49 51°16.624 2°49.737 2.4 257 11 101120 100
2005-05-04 05:18:55 51°16.626 2°49.741 3.2 259 11 101120 100
2005-05-04 05:18:59 51°16.627 2°49.744 3 256 11 101120 100
2005-05-04 05:19:04 51°16.629 2°49.749 2.8 255 11 101120 100
2005-05-04 05:19:09 51°16.632 2°49.756 3.4 260 11 101120 100
2005-05-04 05:19:14 51°16.633 2°49.76 4.2 263 11 101120 100
2005-05-04 05:19:19 51°16.634 2°49.763 4.6 266 11 101120 100
2005-05-04 05:19:23 51°16.636 2°49.765 4.5 266 11 101120 100
2005-05-04 05:19:29 51°16.638 2°49.768 5.3 273 11 101130 100
2005-05-04 05:19:34 51°16.64 2°49.77 5.1 281 11 101130 100
2005-05-04 05:19:39 51°16.642 2°49.772 4.7 280 11 101120 100
2005-05-04 05:19:44 51°16.645 2°49.773 5.1 287 11 101120 100
2005-05-04 05:19:49 51°16.647 2°49.774 4.6 284 11 101120 100
2005-05-04 05:19:54 51°16.649 2°49.775 5 280 11 101120 100
2005-05-04 05:19:59 51°16.651 2°49.776 5.5 278 11 101130 100
2005-05-04 05:20:04 51°16.654 2°49.778 5.1 273 11 101130 100
2005-05-04 05:20:09 51°16.657 2°49.781 5.1 272 11 101120 100
2005-05-04 05:20:14 51°16.659 2°49.783 4.5 277 11 101120 100
2005-05-04 05:20:19 51°16.661 2°49.786 3.8 266 11 101120 100
2005-05-04 05:20:24 51°16.663 2°49.79 3.4 261 11 101120 100
2005-05-04 05:20:29 51°16.665 2°49.794 2.2 256 11 101130 100
2005-05-04 05:20:34 51°16.666 2°49.797 3.4 247 11 101130 100
2005-05-04 05:20:39 51°16.667 2°49.801 3.6 244 11 101120 100
2005-05-04 05:20:44 51°16.668 2°49.805 3.3 239 11 101120 100
2005-05-04 05:20:49 51°16.668 2°49.809 3.6 236 11 101120 100
2005-05-04 05:20:54 51°16.668 2°49.811 3.1 225 11 101120 100
2005-05-04 05:20:59 51°16.668 2°49.814 2.7 216 11 101120 100
2005-05-04 05:21:04 51°16.668 2°49.817 1.7 211 11 101120 100
2005-05-04 05:21:09 51°16.668 2°49.82 2.3 219 11 101120 100
2005-05-04 05:21:14 51°16.667 2°49.823 2.4 213 11 101120 100
2005-05-04 05:21:19 51°16.667 2°49.825 2.9 214 11 101120 100
2005-05-04 05:21:24 51°16.666 2°49.827 3.5 207 11 101120 100
2005-05-04 05:21:29 51°16.665 2°49.828 3.1 211 11 101120 100
2005-05-04 05:21:34 51°16.664 2°49.829 3.1 201 11 101120 100
2005-05-04 05:21:39 51°16.663 2°49.83 2.7 202 11 101130 100
2005-05-04 05:21:43 51°16.662 2°49.83 2.7 195 11 101130 100
2005-05-04 05:21:49 51°16.661 2°49.83 3 199 11 101120 100
2005-05-04 05:21:54 51°16.66 2°49.83 3.1 194 11 101120 100
2005-05-04 05:21:59 51°16.659 2°49.83 2.7 176 11 101120 100
2005-05-04 05:22:04 51°16.657 2°49.829 2.4 190 11 101120 100
2005-05-04 05:22:09 51°16.656 2°49.829 2.3 171 11 101120 100
2005-05-04 05:22:14 51°16.655 2°49.828 3.1 176 11 101120 100
2005-05-04 05:22:19 51°16.654 2°49.827 3.4 178 11 101120 100
2005-05-04 05:22:25 51°16.653 2°49.825 3.3 176 11 101120 100
2005-05-04 05:22:29 51°16.652 2°49.824 4.4 180 11.1 101120 100
2005-05-04 05:22:33 51°16.651 2°49.823 4.4 171 11.1 101120 100
2005-05-04 05:22:39 51°16.65 2°49.821 4.6 170 11.1 101130 100
2005-05-04 05:22:43 51°16.65 2°49.819 5 174 11.1 101130 100
2005-05-04 05:22:49 51°16.649 2°49.815 5.6 172 11.1 101130 100
2005-05-04 05:22:54 51°16.649 2°49.813 5.5 170 11.1 101130 100
2005-05-04 05:22:59 51°16.648 2°49.81 5.1 172 11.1 101130 100
2005-05-04 05:23:05 51°16.648 2°49.807 5.3 168 11.1 101130 100
2005-05-04 05:23:09 51°16.647 2°49.804 5.4 168 11.1 101130 100
2005-05-04 05:23:15 51°16.647 2°49.801 5.7 168 11.1 101130 100
2005-05-04 05:23:19 51°16.647 2°49.799 5.9 172 11 101130 100
2005-05-04 05:23:25 51°16.646 2°49.796 5.4 176 11 101130 100
2005-05-04 05:23:30 51°16.646 2°49.793 5 180 11 101130 100
2005-05-04 05:23:35 51°16.645 2°49.791 4.3 183 11 101130 100
2005-05-04 05:23:39 51°16.644 2°49.79 3.5 189 11 101130 100
2005-05-04 05:23:44 51°16.643 2°49.79 2.8 192 11 101130 100
2005-05-04 05:23:49 51°16.642 2°49.789 2.7 194 11 101130 100
2005-05-04 05:23:54 51°16.641 2°49.789 5 200 11 101130 100
2005-05-04 05:23:59 51°16.64 2°49.789 5.2 204 11.1 101130 100
2005-05-04 05:24:04 51°16.639 2°49.788 5.1 203 11.1 101130 100
2005-05-04 05:24:09 51°16.637 2°49.788 4.4 207 11.2 101130 100
2005-05-04 05:24:14 51°16.636 2°49.788 5.4 211 11.2 101130 100
2005-05-04 05:24:19 51°16.635 2°49.788 5.2 210 11.1 101120 100
2005-05-04 05:24:24 51°16.634 2°49.788 5.2 211 11.1 101120 100
2005-05-04 05:24:29 51°16.632 2°49.787 4.6 209 11.1 101130 100
2005-05-04 05:24:34 51°16.631 2°49.787 4.8 210 11.1 101130 100
2005-05-04 05:24:39 51°16.63 2°49.787 4.6 215 11.1 101130 100
2005-05-04 05:24:45 51°16.629 2°49.787 5.1 213 11.1 101130 100
2005-05-04 05:24:49 51°16.627 2°49.787 5.3 216 11.1 101130 100
2005-05-04 05:24:53 51°16.627 2°49.786 5.6 214 11.1 101130 100
2005-05-04 05:24:59 51°16.626 2°49.786 5.3 220 11.1 101130 100
2005-05-04 05:25:04 51°16.625 2°49.786 5.8 219 11.1 101130 100
2005-05-04 05:25:09 51°16.624 2°49.786 4.7 222 11.1 101130 100
2005-05-04 05:25:14 51°16.623 2°49.786 5.7 219 11.1 101130 100
2005-05-04 05:25:19 51°16.622 2°49.786 4.9 222 11 101130 100
2005-05-04 05:25:24 51°16.62 2°49.786 5.3 223 11 101130 100
2005-05-04 05:25:29 51°16.619 2°49.787 5.9 230 11 101130 100
2005-05-04 05:25:34 51°16.618 2°49.787 5.3 226 11 101130 100
2005-05-04 05:25:39 51°16.617 2°49.787 7.5 227 11 101130 100
2005-05-04 05:25:44 51°16.616 2°49.787 6.4 228 11 101130 100
2005-05-04 05:25:49 51°16.614 2°49.787 6.7 227 11 101130 100
2005-05-04 05:25:54 51°16.613 2°49.787 6.4 227 11 101130 100
2005-05-04 05:25:59 51°16.612 2°49.788 6.2 227 11 101130 100
2005-05-04 05:26:04 51°16.611 2°49.788 6.5 230 11 101130 100
2005-05-04 05:26:09 51°16.61 2°49.788 6.8 234 11 101130 100
2005-05-04 05:26:14 51°16.608 2°49.788 5.7 228 11 101130 100
2005-05-04 05:26:19 51°16.607 2°49.788 5.2 229 11 101130 100
2005-05-04 05:26:24 51°16.606 2°49.789 4.9 232 11 101130 100
2005-05-04 05:26:29 51°16.605 2°49.789 5.8 234 11 101130 100
2005-05-04 05:26:34 51°16.604 2°49.789 5.1 241 11 101130 100
2005-05-04 05:26:39 51°16.603 2°49.79 5.4 238 11 101130 100
2005-05-04 05:26:45 51°16.602 2°49.79 4.8 239 11 101130 100
2005-05-04 05:26:49 51°16.601 2°49.791 4.9 240 11 101130 100
2005-05-04 05:26:54 51°16.599 2°49.791 5.5 235 11 101130 100
2005-05-04 05:26:59 51°16.598 2°49.791 6.2 222 11 101130 100
2005-05-04 05:27:04 51°16.597 2°49.791 6.3 226 11 101130 100
2005-05-04 05:27:09 51°16.596 2°49.792 6.1 231 11 101130 100
2005-05-04 05:27:14 51°16.595 2°49.792 6 223 11 101130 100
2005-05-04 05:27:19 51°16.594 2°49.792 6.2 216 11 101130 100
2005-05-04 05:27:24 51°16.593 2°49.793 6.9 225 11 101130 100
2005-05-04 05:27:29 51°16.592 2°49.793 6.5 226 11 101130 100
2005-05-04 05:27:34 51°16.591 2°49.794 6.2 222 11 101130 100
2005-05-04 05:27:39 51°16.59 2°49.794 6.1 229 11 101120 100
2005-05-04 05:27:44 51°16.589 2°49.794 6.7 232 11 101120 100
2005-05-04 05:27:49 51°16.588 2°49.794 7.8 237 11 101130 100
2005-05-04 05:27:54 51°16.587 2°49.795 5.8 239 11 101130 100
2005-05-04 05:27:59 51°16.586 2°49.795 6.6 237 11 101130 100
2005-05-04 05:28:04 51°16.585 2°49.795 5.9 235 11 101130 100
2005-05-04 05:28:09 51°16.584 2°49.795 8.6 232 11 101130 100
2005-05-04 05:28:14 51°16.584 2°49.796 8.5 235 11 101130 100
2005-05-04 05:28:19 51°16.583 2°49.796 8.2 236 11 101130 100
2005-05-04 05:28:24 51°16.582 2°49.797 7.4 236 11 101130 100
2005-05-04 05:28:29 51°16.581 2°49.797 7.9 239 11 101130 100
2005-05-04 05:28:34 51°16.58 2°49.797 8 234 11 101130 100
2005-05-04 05:28:39 51°16.579 2°49.798 7.7 238 11 101120 100
2005-05-04 05:28:44 51°16.578 2°49.799 8.3 235 11 101120 100
2005-05-04 05:28:49 51°16.577 2°49.799 6.8 240 11 101120 100
2005-05-04 05:28:54 51°16.576 2°49.799 7.1 237 11 101120 100
2005-05-04 05:28:59 51°16.576 2°49.8 5.9 241 11 101120 100
2005-05-04 05:29:04 51°16.575 2°49.8 6.4 241 11 101120 100
2005-05-04 05:29:09 51°16.574 2°49.8 5.8 246 11 101130 100
2005-05-04 05:29:14 51°16.573 2°49.801 6.5 246 11 101130 100
2005-05-04 05:29:19 51°16.572 2°49.801 6 238 11 101120 100
2005-05-04 05:29:24 51°16.571 2°49.801 5.8 250 11 101120 100
2005-05-04 05:29:29 51°16.57 2°49.801 6.1 249 11 101130 100
2005-05-04 05:29:34 51°16.57 2°49.801 5.3 250 11 101130 100
2005-05-04 05:29:39 51°16.569 2°49.801 4.9 252 11 101120 100
2005-05-04 05:29:44 51°16.568 2°49.801 6.7 245 11 101120 100
2005-05-04 05:29:49 51°16.567 2°49.802 7.4 245 11 101130 100
2005-05-04 05:29:54 51°16.566 2°49.802 6.5 249 11 101130 100
2005-05-04 05:29:59 51°16.566 2°49.802 6 249 11 101130 100
2005-05-04 05:30:05 51°16.564 2°49.802 5.9 253 11 101130 100
2005-05-04 05:30:09 51°16.564 2°49.802 5.6 250 11 101120 100
2005-05-04 05:30:14 51°16.563 2°49.802 6.9 240 11 101120 100
2005-05-04 05:30:19 51°16.562 2°49.803 6.8 243 11 101120 100
2005-05-04 05:30:24 51°16.561 2°49.803 7.8 245 11 101120 100
2005-05-04 05:30:29 51°16.56 2°49.803 8.2 242 11 101120 100
2005-05-04 05:30:34 51°16.56 2°49.803 5.8 249 11 101120 100
2005-05-04 05:30:39 51°16.56 2°49.803 7.4 244 11 101130 100
2005-05-04 05:30:44 51°16.559 2°49.803 7.2 242 11 101130 100
2005-05-04 05:30:49 51°16.558 2°49.803 7.4 244 11 101120 100
2005-05-04 05:30:54 51°16.557 2°49.803 6.8 249 11 101120 100
2005-05-04 05:30:59 51°16.556 2°49.803 5.8 247 11 101120 100
2005-05-04 05:31:04 51°16.556 2°49.803 6.9 247 11 101120 100
2005-05-04 05:31:09 51°16.555 2°49.803 7 247 11 101130 100
2005-05-04 05:31:14 51°16.555 2°49.803 6.1 247 11 101130 100
2005-05-04 05:31:19 51°16.554 2°49.803 6.1 250 11 101130 100
2005-05-04 05:31:24 51°16.553 2°49.803 4.9 255 11 101130 100
2005-05-04 05:31:29 51°16.552 2°49.803 6.3 251 11 101130 100
2005-05-04 05:31:34 51°16.551 2°49.803 6.2 253 11 101130 100
2005-05-04 05:31:39 51°16.551 2°49.803 6.3 250 11 101130 100
2005-05-04 05:31:44 51°16.55 2°49.803 5.1 252 11 101130 100
2005-05-04 05:31:49 51°16.549 2°49.802 5.1 255 11 101130 100
2005-05-04 05:31:54 51°16.549 2°49.802 6.5 250 11 101130 100
2005-05-04 05:31:59 51°16.548 2°49.802 5.1 255 11 101130 100
2005-05-04 05:32:03 51°16.548 2°49.803 5.1 254 11 101130 100
2005-05-04 05:32:09 51°16.547 2°49.803 5.2 250 11 101130 100
2005-05-04 05:32:14 51°16.546 2°49.803 4.8 259 11 101130 100
2005-05-04 05:32:19 51°16.545 2°49.803 4.4 259 11 101130 100
2005-05-04 05:32:23 51°16.544 2°49.803 5.9 262 11 101130 100
2005-05-04 05:32:29 51°16.543 2°49.802 5.2 259 11 101130 100
2005-05-04 05:32:34 51°16.543 2°49.802 5.8 263 11 101130 100
2005-05-04 05:32:39 51°16.542 2°49.802 5.2 259 11 101130 100
2005-05-04 05:32:44 51°16.541 2°49.802 5.9 265 11 101130 100
2005-05-04 05:32:49 51°16.541 2°49.801 7.4 266 11 101130 100
2005-05-04 05:32:54 51°16.54 2°49.801 5.7 262 11 101130 100
2005-05-04 05:32:59 51°16.539 2°49.801 6.3 260 11 101130 100
2005-05-04 05:33:04 51°16.539 2°49.801 6 261 11 101130 100
2005-05-04 05:33:09 51°16.538 2°49.801 5.9 267 11 101130 100
2005-05-04 05:33:14 51°16.537 2°49.801 5.7 262 11 101130 100
2005-05-04 05:33:19 51°16.536 2°49.801 6 260 11 101130 100
2005-05-04 05:33:24 51°16.535 2°49.8 5.5 260 11 101130 100
2005-05-04 05:33:29 51°16.535 2°49.8 6.9 265 11 101130 100
2005-05-04 05:33:34 51°16.534 2°49.799 7.6 270 11 101130 100
2005-05-04 05:33:39 51°16.534 2°49.799 7.3 270 11 101130 100
2005-05-04 05:33:44 51°16.535 2°49.799 8.3 271 11 101130 100
2005-05-04 05:33:49 51°16.536 2°49.799 6.9 272 11 101130 100
2005-05-04 05:33:54 51°16.538 2°49.799 7.4 272 11 101130 100
2005-05-04 05:33:59 51°16.54 2°49.799 7.5 275 11 101130 100
2005-05-04 05:34:04 51°16.543 2°49.799 7.5 277 11 101130 100
2005-05-04 05:34:09 51°16.546 2°49.799 7.2 279 11 101130 100
2005-05-04 05:34:14 51°16.55 2°49.798 6.7 289 11 101130 100
2005-05-04 05:34:19 51°16.553 2°49.798 6.9 284 11 101130 100
2005-05-04 05:34:25 51°16.558 2°49.797 6.5 281 11 101130 100
2005-05-04 05:34:29 51°16.562 2°49.797 7.3 285 11 101130 100
2005-05-04 05:34:35 51°16.567 2°49.797 6.6 284 11 101130 100
2005-05-04 05:34:39 51°16.57 2°49.797 6.9 292 11 101130 100
2005-05-04 05:34:44 51°16.575 2°49.796 5.8 285 11 101130 100
2005-05-04 05:34:49 51°16.579 2°49.795 6.5 287 11 101130 100
2005-05-04 05:34:54 51°16.583 2°49.794 6.7 288 11 101130 100
2005-05-04 05:34:59 51°16.586 2°49.794 6.9 290 11 101130 100
2005-05-04 05:35:04 51°16.59 2°49.793 5.9 290 11 101130 100
2005-05-04 05:35:09 51°16.593 2°49.792 6.8 285 11 101130 100
2005-05-04 05:35:14 51°16.596 2°49.791 5.6 287 11 101130 100
2005-05-04 05:35:19 51°16.599 2°49.79 6.6 286 11 101130 100
2005-05-04 05:35:24 51°16.602 2°49.788 6.6 292 11 101130 100
2005-05-04 05:35:29 51°16.604 2°49.787 6.4 291 11 101140 100
2005-05-04 05:35:34 51°16.606 2°49.786 5.6 288 11 101140 100
2005-05-04 05:35:39 51°16.608 2°49.785 6.8 283 11 101130 100
2005-05-04 05:35:44 51°16.609 2°49.783 5.7 285 11 101130 100
2005-05-04 05:35:49 51°16.611 2°49.783 6.5 283 11 101130 100
2005-05-04 05:35:54 51°16.612 2°49.782 6.7 279 11 101130 100
2005-05-04 05:35:59 51°16.614 2°49.781 7 279 11 101140 100
2005-05-04 05:36:04 51°16.615 2°49.78 6.1 275 11 101140 100
2005-05-04 05:36:09 51°16.617 2°49.779 7.2 280 11 101140 100
2005-05-04 05:36:14 51°16.619 2°49.779 7.1 287 11 101140 100
2005-05-04 05:36:19 51°16.62 2°49.778 6.5 286 11 101130 100
2005-05-04 05:36:25 51°16.622 2°49.778 6.2 286 11 101130 100
2005-05-04 05:36:29 51°16.623 2°49.777 6.3 293 11 101140 100
2005-05-04 05:36:34 51°16.625 2°49.777 6.2 288 11 101140 100
2005-05-04 05:36:39 51°16.626 2°49.775 5.8 296 11 101130 100
2005-05-04 05:36:44 51°16.627 2°49.775 6 291 11 101130 100
2005-05-04 05:36:49 51°16.629 2°49.774 6.3 291 11 101140 100
2005-05-04 05:36:54 51°16.63 2°49.774 5.5 291 11 101140 100
2005-05-04 05:36:59 51°16.631 2°49.774 5.4 285 11 101140 100
2005-05-04 05:37:05 51°16.632 2°49.773 5.3 286 11 101140 100
2005-05-04 05:37:09 51°16.633 2°49.772 5.1 287 11 101140 100
2005-05-04 05:37:15 51°16.635 2°49.772 5.6 285 11 101140 100
2005-05-04 05:37:19 51°16.635 2°49.771 5.3 283 11 101130 100
2005-05-04 05:37:24 51°16.636 2°49.771 4.9 286 11 101130 100
2005-05-04 05:37:29 51°16.637 2°49.77 5.3 286 11 101140 100
2005-05-04 05:37:34 51°16.638 2°49.77 5.6 281 11 101140 100
2005-05-04 05:37:39 51°16.64 2°49.769 5.8 281 11 101140 100
2005-05-04 05:37:45 51°16.641 2°49.769 6 275 11 101140 100
2005-05-04 05:37:49 51°16.643 2°49.769 5.4 281 11 101140 100
2005-05-04 05:37:55 51°16.645 2°49.769 5.1 278 11 101140 100
2005-05-04 05:37:59 51°16.646 2°49.77 6.2 278 11 101140 100
2005-05-04 05:38:04 51°16.648 2°49.771 6.4 279 11 101140 100
2005-05-04 05:38:09 51°16.649 2°49.771 5 262 11 101140 100
2005-05-04 05:38:14 51°16.65 2°49.772 4.7 262 11 101140 100
2005-05-04 05:38:19 51°16.65 2°49.773 4.1 260 11 101140 100
2005-05-04 05:38:24 51°16.65 2°49.772 3.6 256 11 101140 100
2005-05-04 05:38:29 51°16.65 2°49.773 3 255 11 101150 100
2005-05-04 05:38:34 51°16.65 2°49.773 3.7 252 11 101150 100
2005-05-04 05:38:39 51°16.649 2°49.773 3.7 257 11 101150 100
2005-05-04 05:38:44 51°16.648 2°49.772 3.9 249 11 101150 100
2005-05-04 05:38:49 51°16.647 2°49.771 4.9 237 11 101140 100
2005-05-04 05:38:54 51°16.646 2°49.77 3.8 247 11 101140 100
2005-05-04 05:38:59 51°16.644 2°49.769 3.8 253 11 101150 100
2005-05-04 05:39:05 51°16.642 2°49.767 4.7 245 11 101150 100
2005-05-04 05:39:09 51°16.641 2°49.766 5.7 237 11 101150 100
2005-05-04 05:39:14 51°16.639 2°49.765 5.7 242 11 101150 100
2005-05-04 05:39:19 51°16.638 2°49.764 5.2 244 11 101150 100
2005-05-04 05:39:24 51°16.637 2°49.763 5.2 238 11 101150 100
2005-05-04 05:39:29 51°16.635 2°49.763 5.1 247 11 101150 100
2005-05-04 05:39:35 51°16.635 2°49.764 4.2 250 11 101150 100
2005-05-04 05:39:39 51°16.635 2°49.764 4.9 249 11 101150 100
2005-05-04 05:39:44 51°16.635 2°49.765 5.3 238 11 101150 100
2005-05-04 05:39:49 51°16.636 2°49.768 5.3 249 11 101150 100
2005-05-04 05:39:54 51°16.636 2°49.77 4.3 246 11 101150 100
2005-05-04 05:39:59 51°16.635 2°49.772 4.1 263 11 101150 100
2005-05-04 05:40:04 51°16.635 2°49.774 4.5 262 11 101150 100
2005-05-04 05:40:09 51°16.635 2°49.776 5.2 274 11 101150 100
2005-05-04 05:40:14 51°16.636 2°49.778 4.3 264 11 101150 100
2005-05-04 05:40:19 51°16.636 2°49.781 5.1 274 10.9 101150 100
2005-05-04 05:40:24 51°16.637 2°49.783 6.3 278 10.9 101150 100
2005-05-04 05:40:29 51°16.638 2°49.785 6.4 285 11 101150 100
2005-05-04 05:40:34 51°16.64 2°49.787 6.6 289 11 101150 100
2005-05-04 05:40:39 51°16.642 2°49.787 5.9 299 10.9 101150 100
2005-05-04 05:40:44 51°16.643 2°49.788 6.1 288 10.9 101150 100
2005-05-04 05:40:49 51°16.644 2°49.788 6 291 11 101150 100
2005-05-04 05:40:54 51°16.646 2°49.789 5.6 288 11 101150 100
2005-05-04 05:40:59 51°16.647 2°49.789 5.7 292 11 101150 100
2005-05-04 05:41:04 51°16.648 2°49.79 6.4 282 11 101150 100
2005-05-04 05:41:09 51°16.649 2°49.79 5.6 288 11 101150 100
2005-05-04 05:41:14 51°16.65 2°49.791 6.4 282 11 101150 100
2005-05-04 05:41:19 51°16.651 2°49.791 6.4 286 11 101150 100
2005-05-04 05:41:24 51°16.652 2°49.792 6.8 283 11 101150 100
2005-05-04 05:41:29 51°16.653 2°49.792 6.9 289 11 101140 100
2005-05-04 05:41:34 51°16.654 2°49.793 6.8 281 11 101140 100
2005-05-04 05:41:39 51°16.654 2°49.793 7.4 280 11 101140 100
2005-05-04 05:41:44 51°16.655 2°49.793 7.6 271 11 101140 100
2005-05-04 05:41:49 51°16.655 2°49.793 7.4 279 11 101140 100
2005-05-04 05:41:54 51°16.656 2°49.793 8.6 278 11 101140 100
2005-05-04 05:41:59 51°16.657 2°49.794 8.9 273 11 101140 100
2005-05-04 05:42:04 51°16.658 2°49.795 9.9 269 11 101140 100
2005-05-04 05:42:09 51°16.659 2°49.795 8.9 272 11 101150 100
2005-05-04 05:42:14 51°16.66 2°49.796 8.1 267 11 101150 100
2005-05-04 05:42:19 51°16.661 2°49.797 8.9 272 11 101140 100
2005-05-04 05:42:24 51°16.662 2°49.798 9 271 11 101140 100
2005-05-04 05:42:29 51°16.663 2°49.8 8.7 268 11 101140 100
2005-05-04 05:42:34 51°16.664 2°49.8 8.1 268 11 101140 100
2005-05-04 05:42:39 51°16.665 2°49.802 8.3 267 10.9 101140 100
2005-05-04 05:42:44 51°16.666 2°49.804 6.4 261 10.9 101140 100
2005-05-04 05:42:49 51°16.667 2°49.806 6.5 261 10.9 101140 100
2005-05-04 05:42:54 51°16.669 2°49.809 7.2 262 10.9 101140 100
2005-05-04 05:42:59 51°16.671 2°49.812 7.4 264 10.9 101140 100
2005-05-04 05:43:04 51°16.673 2°49.816 5.1 261 10.9 101140 100
2005-05-04 05:43:09 51°16.675 2°49.821 5.4 253 10.9 101140 100
2005-05-04 05:43:14 51°16.677 2°49.826 5.5 251 10.9 101140 100
2005-05-04 05:43:19 51°16.679 2°49.832 6.6 245 10.9 101140 100
2005-05-04 05:43:24 51°16.68 2°49.839 7 234 10.9 101140 100
2005-05-04 05:43:29 51°16.681 2°49.845 6.1 235 10.9 101140 100
2005-05-04 05:43:34 51°16.681 2°49.851 6.5 229 10.9 101140 100
2005-05-04 05:43:39 51°16.681 2°49.857 6.6 228 10.9 101140 100
2005-05-04 05:43:44 51°16.681 2°49.863 6.6 226 10.9 101140 100
2005-05-04 05:43:49 51°16.68 2°49.868 6.4 221 10.9 101140 100
2005-05-04 05:43:54 51°16.68 2°49.873 5.5 219 10.9 101140 100
2005-05-04 05:43:59 51°16.679 2°49.878 5.9 220 10.9 101140 100
2005-05-04 05:44:04 51°16.678 2°49.884 6.2 216 10.9 101140 100
2005-05-04 05:44:09 51°16.677 2°49.889 5.8 220 10.9 101140 100
2005-05-04 05:44:14 51°16.676 2°49.893 6.1 218 10.9 101140 100
2005-05-04 05:44:19 51°16.676 2°49.897 5.1 208 10.9 101140 100
2005-05-04 05:44:24 51°16.675 2°49.902 4.7 212 10.9 101140 100
2005-05-04 05:44:29 51°16.674 2°49.907 5.1 206 10.9 101140 100
2005-05-04 05:44:34 51°16.672 2°49.911 6 201 10.9 101140 100
2005-05-04 05:44:39 51°16.671 2°49.915 5.5 201 10.9 101140 100
2005-05-04 05:44:44 51°16.67 2°49.92 5.1 204 10.9 101140 100
2005-05-04 05:44:49 51°16.669 2°49.923 4.8 202 10.9 101140 100
2005-05-04 05:44:54 51°16.668 2°49.927 5.1 201 10.9 101140 100
2005-05-04 05:44:59 51°16.666 2°49.931 4.5 203 10.9 101140 100
2005-05-04 05:45:04 51°16.665 2°49.934 5.2 196 10.9 101140 100
2005-05-04 05:45:09 51°16.663 2°49.938 5.2 203 10.9 101140 100
2005-05-04 05:45:14 51°16.662 2°49.941 4 200 10.9 101140 100
2005-05-04 05:45:19 51°16.661 2°49.945 4.1 198 10.9 101140 100
2005-05-04 05:45:25 51°16.658 2°49.948 2.7 194 10.9 101140 100
2005-05-04 05:45:29 51°16.657 2°49.951 2.9 189 11 101140 100
2005-05-04 05:45:34 51°16.655 2°49.954 2.8 186 11 101140 100
2005-05-04 05:45:39 51°16.654 2°49.957 3.4 188 11 101140 100
2005-05-04 05:45:45 51°16.652 2°49.96 2.3 197 11 101140 100
2005-05-04 05:45:49 51°16.651 2°49.963 3.4 186 11 101140 100
2005-05-04 05:45:54 51°16.649 2°49.965 2.4 194 11 101140 100
2005-05-04 05:45:59 51°16.647 2°49.969 2.3 185 11.1 101140 100
2005-05-04 05:46:05 51°16.645 2°49.972 3 198 11.1 101140 100
2005-05-04 05:46:09 51°16.643 2°49.974 3.3 193 11.2 101140 100
2005-05-04 05:46:13 51°16.642 2°49.976 2.7 191 11.2 101140 100
2005-05-04 05:46:19 51°16.64 2°49.979 2 188 11.2 101140 100
2005-05-04 05:46:24 51°16.638 2°49.982 3 197 11.2 101140 100
2005-05-04 05:46:29 51°16.636 2°49.985 2.8 192 11.2 101140 100
2005-05-04 05:46:34 51°16.634 2°49.987 3.2 194 11.2 101140 100
2005-05-04 05:46:39 51°16.632 2°49.989 2.2 186 11.2 101140 100
2005-05-04 05:46:44 51°16.631 2°49.992 3 196 11.2 101140 100
2005-05-04 05:46:49 51°16.628 2°49.994 3.4 179 11.2 101140 100
2005-05-04 05:46:54 51°16.626 2°49.996 3.2 185 11.2 101140 100
2005-05-04 05:46:59 51°16.625 2°49.998 2.5 183 11.2 101140 100
2005-05-04 05:47:04 51°16.623 2°50 2.9 183 11.2 101140 100
2005-05-04 05:47:09 51°16.62 2°50.003 4 177 11.3 101140 100
2005-05-04 05:47:15 51°16.618 2°50.005 2.5 192 11.3 101140 100
2005-05-04 05:47:19 51°16.617 2°50.007 2.7 187 11.3 101140 100
2005-05-04 05:47:24 51°16.614 2°50.009 3.6 181 11.3 101140 100
2005-05-04 05:47:29 51°16.612 2°50.01 2.8 190 11.3 101140 100
2005-05-04 05:47:34 51°16.61 2°50.012 3 185 11.3 101140 100
2005-05-04 05:47:39 51°16.608 2°50.014 3.6 190 11.3 101150 100
2005-05-04 05:47:44 51°16.606 2°50.015 3.6 191 11.3 101150 100
2005-05-04 05:47:49 51°16.604 2°50.017 3.2 189 11.4 101150 100
2005-05-04 05:47:54 51°16.602 2°50.019 3.7 195 11.4 101150 100
2005-05-04 05:47:59 51°16.6 2°50.02 3.4 186 11.4 101150 100
2005-05-04 05:48:05 51°16.597 2°50.022 3.1 188 11.4 101150 100
2005-05-04 05:48:09 51°16.595 2°50.024 4.1 181 11.4 101150 100
2005-05-04 05:48:15 51°16.593 2°50.025 4.4 180 11.4 101150 100
2005-05-04 05:48:19 51°16.591 2°50.026 4.2 180 11.5 101150 100
2005-05-04 05:48:25 51°16.588 2°50.028 3.5 184 11.5 101150 100
2005-05-04 05:48:29 51°16.586 2°50.029 4.8 181 11.4 101160 100
2005-05-04 05:48:34 51°16.584 2°50.031 4.7 178 11.4 101160 100
2005-05-04 05:48:39 51°16.582 2°50.032 5.1 176 11.4 101150 100
2005-05-04 05:48:44 51°16.579 2°50.034 4.7 177 11.4 101150 100
2005-05-04 05:48:50 51°16.577 2°50.035 6.5 174 11.4 101150 100
2005-05-04 05:48:54 51°16.575 2°50.036 5.5 174 11.4 101150 100
2005-05-04 05:48:59 51°16.572 2°50.037 5.3 176 11.3 101160 100
2005-05-04 05:49:04 51°16.569 2°50.039 5.9 168 11.3 101160 100
2005-05-04 05:49:09 51°16.566 2°50.041 5.1 161 11.3 101160 100
2005-05-04 05:49:14 51°16.562 2°50.042 5.8 157 11.3 101160 100
2005-05-04 05:49:19 51°16.558 2°50.043 5.8 151 11.2 101160 100
2005-05-04 05:49:24 51°16.554 2°50.045 6.1 143 11.2 101160 100
2005-05-04 05:49:29 51°16.549 2°50.045 6.2 138 11.2 101160 100
2005-05-04 05:49:34 51°16.544 2°50.046 5.8 134 11.2 101160 100
2005-05-04 05:49:39 51°16.54 2°50.045 6.5 132 11.2 101160 100
2005-05-04 05:49:44 51°16.535 2°50.045 6.1 125 11.2 101160 100
2005-05-04 05:49:49 51°16.53 2°50.043 6.6 120 11.2 101150 100
2005-05-04 05:49:54 51°16.524 2°50.04 6.4 116 11.2 101150 100
2005-05-04 05:49:59 51°16.519 2°50.038 6.1 114 11.2 101150 100
2005-05-04 05:50:05 51°16.514 2°50.035 6.2 107 11.2 101150 100
2005-05-04 05:50:09 51°16.509 2°50.032 6.3 99 11.2 101150 100
2005-05-04 05:50:14 51°16.505 2°50.028 7 93 11.2 101150 100
2005-05-04 05:50:19 51°16.5 2°50.023 6.2 95 11.1 101150 100
2005-05-04 05:50:25 51°16.495 2°50.017 7.1 89 11.1 101150 100
2005-05-04 05:50:29 51°16.491 2°50.012 7.4 85 11.1 101150 100
2005-05-04 05:50:34 51°16.487 2°50.006 5.4 79 11.1 101150 100
2005-05-04 05:50:39 51°16.484 2°50 6 70 11.1 101150 100
2005-05-04 05:50:44 51°16.48 2°49.993 6.5 66 11.1 101150 100
2005-05-04 05:50:49 51°16.477 2°49.986 6.5 56 11.1 101150 100
2005-05-04 05:50:54 51°16.475 2°49.979 7.7 51 11.1 101150 100
2005-05-04 05:50:59 51°16.472 2°49.971 7.5 51 11.1 101150 100
2005-05-04 05:51:04 51°16.47 2°49.964 7.9 45 11.1 101150 100
2005-05-04 05:51:09 51°16.469 2°49.956 8.2 39 11.1 101150 100
2005-05-04 05:51:14 51°16.467 2°49.948 8.1 33 11.1 101150 100
2005-05-04 05:51:19 51°16.466 2°49.941 7.6 28 11.1 101160 100
2005-05-04 05:51:24 51°16.466 2°49.932 7.4 25 11.1 101160 100
2005-05-04 05:51:29 51°16.466 2°49.924 7.7 17 11.1 101160 100
2005-05-04 05:51:35 51°16.466 2°49.916 7.3 15 11.1 101160 100
2005-05-04 05:51:39 51°16.466 2°49.909 7.9 8 11.1 101160 100
2005-05-04 05:51:44 51°16.467 2°49.903 8.1 7 11.1 101160 100
2005-05-04 05:51:49 51°16.468 2°49.895 8.4 6 11.1 101160 100
2005-05-04 05:51:54 51°16.47 2°49.889 8.4 355 11.1 101160 100
2005-05-04 05:51:59 51°16.471 2°49.883 8.9 352 11.1 101160 100
2005-05-04 05:52:04 51°16.474 2°49.878 8.5 348 11.1 101160 100
2005-05-04 05:52:09 51°16.476 2°49.872 8 341 11.1 101160 100
2005-05-04 05:52:14 51°16.48 2°49.869 8.4 343 11.1 101160 100
2005-05-04 05:52:19 51°16.484 2°49.865 8.6 342 11.1 101160 100
2005-05-04 05:52:24 51°16.488 2°49.86 8.2 344 11.1 101160 100
2005-05-04 05:52:29 51°16.491 2°49.855 8.4 342 11.1 101150 100
2005-05-04 05:52:34 51°16.494 2°49.851 8.5 346 11.1 101150 100
2005-05-04 05:52:39 51°16.497 2°49.846 8.6 344 11.1 101150 100
2005-05-04 05:52:44 51°16.501 2°49.84 8.2 343 11.1 101150 100
2005-05-04 05:52:49 51°16.505 2°49.835 8.5 342 11.1 101150 100
2005-05-04 05:52:54 51°16.509 2°49.829 8.4 338 11.1 101150 100
2005-05-04 05:52:59 51°16.512 2°49.825 8.2 334 11 101150 100
2005-05-04 05:53:05 51°16.517 2°49.82 8.3 333 11 101150 100
2005-05-04 05:53:09 51°16.521 2°49.816 7.8 325 11 101150 100
2005-05-04 05:53:14 51°16.525 2°49.813 7.5 334 11 101150 100
2005-05-04 05:53:19 51°16.53 2°49.809 8.2 343 11 101150 100
2005-05-04 05:53:24 51°16.534 2°49.805 7.6 338 11 101150 100
2005-05-04 05:53:29 51°16.539 2°49.8 8 340 11.1 101140 100
2005-05-04 05:53:35 51°16.543 2°49.795 8.1 340 11.1 101140 100
2005-05-04 05:53:39 51°16.547 2°49.792 7.6 342 11 101150 100
2005-05-04 05:53:44 51°16.552 2°49.788 7.7 337 11 101150 100
2005-05-04 05:53:49 51°16.556 2°49.785 7 333 11 101160 100
2005-05-04 05:53:54 51°16.56 2°49.782 8.4 336 11 101160 100
2005-05-04 05:53:59 51°16.565 2°49.779 8.2 328 11.1 101150 100
2005-05-04 05:54:04 51°16.57 2°49.777 7.8 321 11.1 101150 100
2005-05-04 05:54:09 51°16.575 2°49.776 7.8 318 11 101160 100
2005-05-04 05:54:15 51°16.58 2°49.776 7.3 315 11 101160 100
2005-05-04 05:54:19 51°16.584 2°49.777 7.2 312 11 101160 100
2005-05-04 05:54:25 51°16.59 2°49.778 7.5 313 11 101160 100
2005-05-04 05:54:29 51°16.594 2°49.779 7.7 313 11 101160 100
2005-05-04 05:54:34 51°16.598 2°49.781 8.2 227 11 101160 100
2005-05-04 05:54:39 51°16.602 2°49.782 7.8 316 11 101160 100
2005-05-04 05:54:44 51°16.608 2°49.783 7.3 319 11 101160 100
2005-05-04 05:54:49 51°16.613 2°49.784 7.9 321 11 101160 100
2005-05-04 05:54:54 51°16.619 2°49.785 7.7 320 11 101160 100
2005-05-04 05:54:59 51°16.625 2°49.787 7.5 229 11 101160 100
2005-05-04 05:55:04 51°16.632 2°49.79 7.5 311 11 101160 100
2005-05-04 05:55:09 51°16.637 2°49.793 7.3 308 11 101160 100
2005-05-04 05:55:14 51°16.642 2°49.796 7.2 309 11 101160 100
2005-05-04 05:55:19 51°16.647 2°49.798 7.1 306 11 101160 100
2005-05-04 05:55:25 51°16.651 2°49.8 6.7 309 11 101160 100
2005-05-04 05:55:29 51°16.655 2°49.802 6.4 309 11 101150 100
2005-05-04 05:55:34 51°16.659 2°49.803 6.5 317 11 101150 100
2005-05-04 05:55:39 51°16.663 2°49.804 7.7 318 11 101170 100
2005-05-04 05:55:44 51°16.666 2°49.804 7.3 326 11 101170 100
2005-05-04 05:55:49 51°16.67 2°49.804 7.1 328 11 101160 100
2005-05-04 05:55:55 51°16.674 2°49.803 7.1 331 11 101160 100
2005-05-04 05:55:59 51°16.676 2°49.802 7 332 11 101160 100
2005-05-04 05:56:04 51°16.679 2°49.8 7.2 326 11 101160 100
2005-05-04 05:56:09 51°16.682 2°49.799 7.1 330 11 101160 100
2005-05-04 05:56:15 51°16.685 2°49.796 6.7 341 11 101160 100
2005-05-04 05:56:19 51°16.687 2°49.795 6.5 340 11 101170 100
2005-05-04 05:56:24 51°16.69 2°49.792 7.3 345 11 101170 100
2005-05-04 05:56:29 51°16.692 2°49.79 6.6 349 11 101160 100
2005-05-04 05:56:34 51°16.693 2°49.787 6.7 353 11 101160 100
2005-05-04 05:56:39 51°16.694 2°49.785 5.7 357 11 101170 100
2005-05-04 05:56:45 51°16.695 2°49.783 5.6 8 11 101170 100
2005-05-04 05:56:49 51°16.695 2°49.782 5.6 7 11 101170 100
2005-05-04 05:56:54 51°16.696 2°49.781 5 360 11 101170 100
2005-05-04 05:56:59 51°16.695 2°49.781 3.3 2 11 101170 100
2005-05-04 05:57:04 51°16.695 2°49.781 5.3 3 11 101170 100
2005-05-04 05:57:09 51°16.694 2°49.781 5.6 347 11 101170 100
2005-05-04 05:57:14 51°16.693 2°49.781 3.1 336 11 101170 100
2005-05-04 05:57:19 51°16.691 2°49.782 3.4 344 11 101180 100
2005-05-04 05:57:25 51°16.689 2°49.782 3.9 351 11 101180 100
2005-05-04 05:57:29 51°16.688 2°49.783 4.5 339 11 101180 100
2005-05-04 05:57:33 51°16.687 2°49.783 4.3 341 11 101180 100
2005-05-04 05:57:39 51°16.685 2°49.784 5.2 335 11 101170 100
2005-05-04 05:57:44 51°16.683 2°49.785 5.4 330 11 101170 100
2005-05-04 05:57:49 51°16.682 2°49.785 5.4 329 11 101180 100
2005-05-04 05:57:55 51°16.68 2°49.786 5.6 324 11 101180 100
2005-05-04 05:57:59 51°16.678 2°49.786 5.3 324 11 101170 100
2005-05-04 05:58:04 51°16.677 2°49.787 5.6 317 11 101170 100
2005-05-04 05:58:09 51°16.675 2°49.788 5.2 321 11 101170 100
2005-05-04 05:58:14 51°16.674 2°49.788 5.1 318 11 101170 100
2005-05-04 05:58:19 51°16.672 2°49.788 5 318 11 101170 100
2005-05-04 05:58:25 51°16.67 2°49.789 5.2 319 11 101170 100
2005-05-04 05:58:29 51°16.669 2°49.789 5 318 11 101170 100
2005-05-04 05:58:33 51°16.668 2°49.789 5 43 11 101170 100
2005-05-04 05:58:39 51°16.667 2°49.79 5.2 313 10.9 101170 100
2005-05-04 05:58:44 51°16.665 2°49.79 4.4 314 10.9 101170 100
2005-05-04 05:58:49 51°16.665 2°49.79 5.4 314 10.9 101170 100
2005-05-04 05:58:54 51°16.664 2°49.79 8.6 326 10.9 101170 100
2005-05-04 05:58:59 51°16.663 2°49.789 5.1 335 10.9 101170 100
2005-05-04 05:59:04 51°16.663 2°49.789 4.6 322 10.9 101170 100
2005-05-04 05:59:09 51°16.663 2°49.789 5.9 321 10.9 101160 100
2005-05-04 05:59:13 51°16.663 2°49.789 6.4 316 10.9 101160 100
2005-05-04 05:59:19 51°16.662 2°49.789 6.4 321 10.9 101160 100
2005-05-04 05:59:25 51°16.662 2°49.788 6.8 326 10.9 101160 100
2005-05-04 05:59:29 51°16.662 2°49.788 6 320 10.9 101160 100
2005-05-04 05:59:35 51°16.662 2°49.788 6.6 324 10.9 101160 100
2005-05-04 05:59:39 51°16.662 2°49.788 7 326 10.9 101160 100
2005-05-04 05:59:45 51°16.661 2°49.788 6.3 324 10.9 101160 100
2005-05-04 05:59:49 51°16.661 2°49.788 6.4 323 10.9 101160 100
2005-05-04 05:59:55 51°16.66 2°49.788 6.2 321 10.9 101160 100
2005-05-04 05:59:59 51°16.66 2°49.788 6.3 319 10.9 101160 100
2005-05-04 06:00:04 51°16.66 2°49.788 6.2 317 10.9 101160 100
2005-05-04 06:00:09 51°16.659 2°49.787 6.2 43 10.9 101160 100
2005-05-04 06:00:15 51°16.659 2°49.788 5.8 227 10.9 101160 100
2005-05-04 06:00:19 51°16.659 2°49.788 5.7 314 10.9 101170 100
2005-05-04 06:00:24 51°16.658 2°49.788 5.6 228 10.9 101170 100
2005-05-04 06:00:29 51°16.658 2°49.788 5.3 312 10.9 101160 100
2005-05-04 06:00:35 51°16.657 2°49.788 5.9 312 10.9 101160 100
2005-05-04 06:00:39 51°16.656 2°49.788 5.4 313 10.9 101170 100
2005-05-04 06:00:44 51°16.656 2°49.788 5.6 315 10.9 101170 100
2005-05-04 06:00:49 51°16.655 2°49.788 5.7 313 10.9 101170 100
2005-05-04 06:00:55 51°16.655 2°49.788 5.3 312 10.9 101170 100
2005-05-04 06:00:59 51°16.654 2°49.788 6 308 10.9 101170 100
2005-05-04 06:01:05 51°16.653 2°49.788 5.6 304 10.9 101170 100
2005-05-04 06:01:09 51°16.653 2°49.788 5.5 312 10.9 101180 100
2005-05-04 06:01:13 51°16.652 2°49.788 5.8 314 10.9 101180 100
2005-05-04 06:01:19 51°16.651 2°49.788 5.6 311 10.9 101180 100
2005-05-04 06:01:24 51°16.651 2°49.789 5.6 310 10.9 101180 100
2005-05-04 06:01:29 51°16.65 2°49.788 5.9 313 10.9 101180 100
2005-05-04 06:01:33 51°16.65 2°49.789 6.1 43 10.9 101180 100
2005-05-04 06:01:39 51°16.65 2°49.789 5.4 312 10.9 101180 100
2005-05-04 06:01:44 51°16.65 2°49.789 6.3 321 10.9 101180 100
2005-05-04 06:01:49 51°16.649 2°49.789 6.8 41 10.9 101180 100
2005-05-04 06:01:53 51°16.649 2°49.789 6.3 41 10.9 101180 100
2005-05-04 06:01:59 51°16.649 2°49.789 6.8 319 10.9 101170 100
2005-05-04 06:02:05 51°16.648 2°49.789 6.9 316 10.9 101170 100
2005-05-04 06:02:09 51°16.648 2°49.789 7.1 315 10.9 101170 100
2005-05-04 06:02:14 51°16.648 2°49.789 7.2 226 10.9 101170 100
2005-05-04 06:02:19 51°16.647 2°49.789 6.8 315 10.9 101180 100
2005-05-04 06:02:24 51°16.647 2°49.79 6.8 42 10.9 101180 100
2005-05-04 06:02:29 51°16.646 2°49.79 6.7 315 10.9 101180 100
2005-05-04 06:02:34 51°16.646 2°49.79 7.1 315 10.9 101180 100
2005-05-04 06:02:39 51°16.645 2°49.79 7.1 321 10.9 101170 100
2005-05-04 06:02:44 51°16.645 2°49.79 6.9 322 10.9 101170 100
2005-05-04 06:02:49 51°16.644 2°49.79 6.1 319 10.9 101170 100
2005-05-04 06:02:53 51°16.644 2°49.791 6.1 321 10.9 101170 100
2005-05-04 06:02:59 51°16.643 2°49.791 5.5 322 10.9 101180 100
2005-05-04 06:03:04 51°16.642 2°49.791 5.4 318 10.9 101180 100
2005-05-04 06:03:09 51°16.642 2°49.791 4.9 42 10.9 101170 100
2005-05-04 06:03:14 51°16.642 2°49.791 5.5 315 10.9 101170 100
2005-05-04 06:03:19 51°16.642 2°49.791 5.3 319 10.8 101180 100
2005-05-04 06:03:25 51°16.643 2°49.791 5.5 320 10.8 101180 100
2005-05-04 06:03:29 51°16.644 2°49.791 4.9 321 10.8 101180 100
2005-05-04 06:03:34 51°16.645 2°49.79 5.9 327 10.8 101180 100
2005-05-04 06:03:39 51°16.647 2°49.789 6.4 326 10.8 101180 100
2005-05-04 06:03:44 51°16.649 2°49.788 6.1 334 10.8 101180 100
2005-05-04 06:03:49 51°16.651 2°49.787 5.9 335 10.8 101180 100
2005-05-04 06:03:54 51°16.653 2°49.785 6.1 337 10.8 101180 100
2005-05-04 06:03:59 51°16.655 2°49.782 6.4 337 10.8 101180 100
2005-05-04 06:04:05 51°16.657 2°49.779 5.9 338 10.8 101180 100
2005-05-04 06:04:09 51°16.659 2°49.777 5.6 341 10.8 101180 100
2005-05-04 06:04:15 51°16.661 2°49.774 6.1 347 10.8 101180 100
2005-05-04 06:04:19 51°16.663 2°49.771 6.3 343 10.8 101180 100
2005-05-04 06:04:24 51°16.665 2°49.768 5.6 342 10.8 101180 100
2005-05-04 06:04:29 51°16.666 2°49.765 5.6 345 10.8 101180 100
2005-05-04 06:04:34 51°16.668 2°49.762 5.8 338 10.8 101180 100
2005-05-04 06:04:39 51°16.67 2°49.76 5.8 344 10.8 101180 100
2005-05-04 06:04:44 51°16.672 2°49.757 5.9 346 10.8 101180 100
2005-05-04 06:04:49 51°16.673 2°49.754 5.5 345 10.8 101180 100
2005-05-04 06:04:53 51°16.674 2°49.751 6.8 340 10.8 101180 100
2005-05-04 06:04:59 51°16.675 2°49.748 6.4 343 10.8 101180 100
2005-05-04 06:05:04 51°16.676 2°49.746 5.9 344 10.8 101180 100
2005-05-04 06:05:10 51°16.677 2°49.743 5.6 342 10.8 101180 100
2005-05-04 06:05:14 51°16.678 2°49.74 6 335 10.8 101180 100
2005-05-04 06:05:19 51°16.679 2°49.738 7.1 343 10.8 101180 100
2005-05-04 06:05:24 51°16.68 2°49.735 6.5 347 10.8 101180 100
2005-05-04 06:05:29 51°16.681 2°49.733 6.3 346 10.8 101180 100
2005-05-04 06:05:35 51°16.682 2°49.73 5.8 346 10.8 101180 100
2005-05-04 06:05:39 51°16.682 2°49.728 6 343 10.8 101180 100
2005-05-04 06:05:45 51°16.683 2°49.726 5.8 350 10.8 101180 100
2005-05-04 06:05:49 51°16.684 2°49.724 6.3 350 10.8 101180 100
2005-05-04 06:05:53 51°16.684 2°49.722 6.2 349 10.8 101180 100
2005-05-04 06:05:59 51°16.685 2°49.72 6.2 349 10.8 101180 100
2005-05-04 06:06:04 51°16.686 2°49.717 5.9 345 10.8 101180 100
2005-05-04 06:06:09 51°16.686 2°49.715 6.3 351 10.8 101180 100
2005-05-04 06:06:14 51°16.687 2°49.712 6.6 354 10.8 101180 100
2005-05-04 06:06:19 51°16.687 2°49.708 6.6 356 10.8 101180 100
2005-05-04 06:06:24 51°16.688 2°49.704 6.2 3 10.8 101180 100
2005-05-04 06:06:29 51°16.688 2°49.7 6 3 10.8 101180 100
2005-05-04 06:06:34 51°16.689 2°49.696 5.9 7 10.8 101180 100
2005-05-04 06:06:39 51°16.689 2°49.692 6 10 10.8 101180 100
2005-05-04 06:06:45 51°16.689 2°49.686 5.8 11 10.8 101180 100
2005-05-04 06:06:49 51°16.688 2°49.682 5.9 16 10.8 101180 100
2005-05-04 06:06:54 51°16.688 2°49.677 5.8 20 10.8 101180 100
2005-05-04 06:06:59 51°16.687 2°49.672 5.9 25 10.8 101180 100
2005-05-04 06:07:04 51°16.686 2°49.667 5.9 33 10.8 101180 100
2005-05-04 06:07:09 51°16.684 2°49.661 5.6 42 10.8 101180 100
2005-05-04 06:07:15 51°16.682 2°49.655 5 47 10.8 101180 100